CYOWCYFB

Guest
Details From CYOW - Ottawa Macdonald Cartier Intl
To CYFB - Iqaluit
Flight Number -
Tags Generated
Created
Modified
Stats Distance 1,134 nm / 2,101 km
Max Altitude 0 ft / 0 m
Waypoints 4
Social Downloads 3
Likes 0
Share VATSIM

Download

Looking for another format? Having issues loading an existing format? Contact us
Advertisement - Login to hide

Notes

Generated

Route

CYOW YAS YFY CYFB

ID Type Via Altitude Latitude Longitude Leg Dist Tot Dist Heading (true) Name
O CYOW APT - 0 ft / 0 m 45.32611˚ -75.68903˚ - 0 nm - -
YAS NDB - 0 ft / 0 m 60.02556˚ -70.00472˚ 905 nm 905 nm 11° / 16° KANGIRSUK NDB
YFY NDB - 0 ft / 0 m 63.73333˚ -68.54806˚ 226 nm 1132 nm 10° / 11° FROBAY NDB
O CYFB APT - 0 ft / 0 m 63.76497˚ -68.57398˚ 2 nm 1134 nm 340° / 340° -

Altitude Profile

Advertisement - Login to hide

Weather


0- 5 10 15 20 25 30 35+ Temperature / ° C

Clouds and Precipitation
Forecast for 2017-12-15 00:00 UTC. Updated an hour ago

Ground ~20,000 ft ~40,000 ft Winds

CYOW

Details ICAO CYOW (YOW)
Name Ottawa Macdonald Cartier Intl
Region Canada
Timezone America/Toronto (UTC-5.0)
Stats Elevation 374 ft / 114 m (AMSL)
Location 45.322817° -75.671438°
Runways 3
Magnetic Variation 13.246° W

METAR

CYOW 142200Z 27007KT 15SM SKC M16/M21 A2986 RMK SLP125

Decode

TAF

TAF CYOW 142038Z 1421/1518 27010G20KT P6SM FEW025 BECMG 1421/1423 27008KT FM150900 VRB03KT P6SM FEW100 FM151500 07006KT P6SM BKN020 BKN090 RMK NXT FCST BY 150000Z

Decode

Departure Runways

ID Width Length Bearing (true) Bearing (mag) Surface Threshold Offset Overrun Length
04 75 ft / 23 m 3,304 ft / 1,007 m 25.50° 38.75° Asphalt 0 ft / 0 m 0 ft / 0 m
07 200 ft / 61 m 8,011 ft / 2,442 m 57.16° 70.41° Asphalt 0 ft / 0 m 150 ft / 46 m
14 200 ft / 61 m 9,978 ft / 3,041 m 126.44° 139.69° Asphalt 0 ft / 0 m 150 ft / 46 m
22 75 ft / 23 m 3,304 ft / 1,007 m 205.50° 218.75° Asphalt 0 ft / 0 m 0 ft / 0 m
25 200 ft / 61 m 8,011 ft / 2,442 m 237.18° 250.43° Asphalt 0 ft / 0 m 155 ft / 47 m
32 200 ft / 61 m 9,978 ft / 3,041 m 306.46° 319.71° Asphalt 0 ft / 0 m 150 ft / 46 m

CYFB

Details ICAO CYFB (YFB)
Name Iqaluit
Region Canada
Timezone America/Iqaluit (UTC-5.0)
Stats Elevation 110 ft / 34 m (AMSL)
Location 63.756565° -68.556058°
Runways 1
Magnetic Variation 27.542° W

METAR

CYFB 142200Z 06020G28KT 15SM -SN DRSN BKN051 OVC088 M11/M16 A2952 RMK SC5AC3 SLP003

Decode

TAF

TAF TAF AMD CYFB 142146Z 1421/1518 05020G30KT P6SM -SN DRSN BKN040 OVC090 FM150300 05020G30KT P6SM BKN030 OVC080 TEMPO 1503/1506 2SM -SN BLSN BKN015 OVC030 FM150600 05025G35KT 11/2SM -SN BLSN BKN015 OVC030 FM151500 05020G30KT 2SM -SN BLSN BKN020 OVC080 RMK NXT FCST BY 150000Z

Decode

Destination Runways

ID Width Length Bearing (true) Bearing (mag) Surface Threshold Offset Overrun Length
17 200 ft / 61 m 8,605 ft / 2,623 m 135.58° 163.12° Asphalt 0 ft / 0 m 210 ft / 64 m
35 200 ft / 61 m 8,605 ft / 2,623 m 315.62° 343.16° Asphalt 0 ft / 0 m 243 ft / 74 m

Popular Alternatives